sensor_id;sensor_type;location;lat;lon;timestamp;P1;durP1;ratioP1;P2;durP2;ratioP2
15271;SDS011;7737;51.578;7.268;2023-02-23T00:03:13;45.60;;;39.20;;
15271;SDS011;7737;51.578;7.268;2023-02-23T00:06:38;44.63;;;39.67;;
15271;SDS011;7737;51.578;7.268;2023-02-23T00:10:03;46.45;;;41.15;;
15271;SDS011;7737;51.578;7.268;2023-02-23T00:13:31;48.08;;;40.78;;
15271;SDS011;7737;51.578;7.268;2023-02-23T00:16:56;47.17;;;40.50;;
15271;SDS011;7737;51.578;7.268;2023-02-23T00:20:22;48.53;;;41.30;;
15271;SDS011;7737;51.578;7.268;2023-02-23T00:23:49;50.10;;;42.03;;
15271;SDS011;7737;51.578;7.268;2023-02-23T00:27:14;45.40;;;39.70;;
15271;SDS011;7737;51.578;7.268;2023-02-23T00:30:41;47.08;;;39.70;;
15271;SDS011;7737;51.578;7.268;2023-02-23T00:34:08;48.20;;;42.20;;
15271;SDS011;7737;51.578;7.268;2023-02-23T00:37:42;50.65;;;42.35;;
15271;SDS011;7737;51.578;7.268;2023-02-23T00:41:07;48.85;;;41.30;;
15271;SDS011;7737;51.578;7.268;2023-02-23T00:44:34;47.85;;;42.13;;
15271;SDS011;7737;51.578;7.268;2023-02-23T00:48:02;48.20;;;42.90;;
15271;SDS011;7737;51.578;7.268;2023-02-23T00:51:29;47.75;;;40.75;;
15271;SDS011;7737;51.578;7.268;2023-02-23T00:54:54;50.65;;;42.78;;
15271;SDS011;7737;51.578;7.268;2023-02-23T00:58:20;49.22;;;42.67;;
15271;SDS011;7737;51.578;7.268;2023-02-23T01:01:45;54.78;;;43.72;;
15271;SDS011;7737;51.578;7.268;2023-02-23T01:05:12;49.28;;;39.92;;
15271;SDS011;7737;51.578;7.268;2023-02-23T01:08:40;53.65;;;44.00;;
15271;SDS011;7737;51.578;7.268;2023-02-23T01:12:06;55.00;;;44.28;;
15271;SDS011;7737;51.578;7.268;2023-02-23T01:15:31;56.47;;;45.50;;
15271;SDS011;7737;51.578;7.268;2023-02-23T01:18:58;50.28;;;42.28;;
15271;SDS011;7737;51.578;7.268;2023-02-23T01:22:24;48.92;;;41.67;;
15271;SDS011;7737;51.578;7.268;2023-02-23T01:25:49;50.28;;;43.80;;
15271;SDS011;7737;51.578;7.268;2023-02-23T01:29:15;53.72;;;44.67;;
15271;SDS011;7737;51.578;7.268;2023-02-23T01:32:40;49.45;;;42.85;;
15271;SDS011;7737;51.578;7.268;2023-02-23T01:36:05;51.05;;;43.60;;
15271;SDS011;7737;51.578;7.268;2023-02-23T01:39:34;48.35;;;41.55;;
15271;SDS011;7737;51.578;7.268;2023-02-23T01:43:09;55.95;;;44.85;;
15271;SDS011;7737;51.578;7.268;2023-02-23T01:46:50;54.78;;;45.03;;
15271;SDS011;7737;51.578;7.268;2023-02-23T01:50:16;57.38;;;45.42;;
15271;SDS011;7737;51.578;7.268;2023-02-23T01:53:44;54.95;;;44.13;;
15271;SDS011;7737;51.578;7.268;2023-02-23T01:57:15;52.08;;;44.30;;
15271;SDS011;7737;51.578;7.268;2023-02-23T02:00:45;55.13;;;44.15;;
15271;SDS011;7737;51.578;7.268;2023-02-23T02:04:12;59.85;;;48.85;;
15271;SDS011;7737;51.578;7.268;2023-02-23T02:07:38;55.20;;;44.75;;
15271;SDS011;7737;51.578;7.268;2023-02-23T02:11:11;57.53;;;45.90;;
15271;SDS011;7737;51.578;7.268;2023-02-23T02:14:36;58.35;;;45.83;;
15271;SDS011;7737;51.578;7.268;2023-02-23T02:18:08;55.45;;;45.88;;
15271;SDS011;7737;51.578;7.268;2023-02-23T02:26:03;62.47;;;48.58;;
15271;SDS011;7737;51.578;7.268;2023-02-23T02:33:54;63.38;;;51.20;;
15271;SDS011;7737;51.578;7.268;2023-02-23T02:37:49;74.68;;;60.33;;
15271;SDS011;7737;51.578;7.268;2023-02-23T02:41:19;62.75;;;49.42;;
15271;SDS011;7737;51.578;7.268;2023-02-23T02:44:55;64.65;;;51.75;;
15271;SDS011;7737;51.578;7.268;2023-02-23T02:48:28;69.15;;;53.55;;
15271;SDS011;7737;51.578;7.268;2023-02-23T02:51:59;68.72;;;53.80;;
15271;SDS011;7737;51.578;7.268;2023-02-23T02:55:31;67.90;;;51.20;;
15271;SDS011;7737;51.578;7.268;2023-02-23T02:59:00;68.47;;;51.85;;
15271;SDS011;7737;51.578;7.268;2023-02-23T03:02:44;69.57;;;52.28;;
15271;SDS011;7737;51.578;7.268;2023-02-23T03:06:29;65.97;;;50.70;;
15271;SDS011;7737;51.578;7.268;2023-02-23T03:10:19;68.05;;;49.10;;
15271;SDS011;7737;51.578;7.268;2023-02-23T03:14:10;67.32;;;48.67;;
15271;SDS011;7737;51.578;7.268;2023-02-23T03:18:07;65.28;;;48.35;;
15271;SDS011;7737;51.578;7.268;2023-02-23T03:21:58;66.95;;;48.40;;
15271;SDS011;7737;51.578;7.268;2023-02-23T03:25:53;70.20;;;49.58;;
15271;SDS011;7737;51.578;7.268;2023-02-23T03:29:41;71.28;;;50.65;;
15271;SDS011;7737;51.578;7.268;2023-02-23T03:33:33;68.93;;;49.65;;
15271;SDS011;7737;51.578;7.268;2023-02-23T03:37:21;69.82;;;49.63;;
15271;SDS011;7737;51.578;7.268;2023-02-23T03:41:11;68.38;;;48.22;;
15271;SDS011;7737;51.578;7.268;2023-02-23T03:45:00;68.32;;;48.20;;
15271;SDS011;7737;51.578;7.268;2023-02-23T03:48:47;68.10;;;50.45;;
15271;SDS011;7737;51.578;7.268;2023-02-23T03:52:33;82.30;;;52.08;;
15271;SDS011;7737;51.578;7.268;2023-02-23T03:56:24;73.00;;;50.60;;
15271;SDS011;7737;51.578;7.268;2023-02-23T04:00:11;77.68;;;52.58;;
15271;SDS011;7737;51.578;7.268;2023-02-23T04:03:56;75.85;;;51.78;;
15271;SDS011;7737;51.578;7.268;2023-02-23T04:07:42;75.03;;;51.58;;
15271;SDS011;7737;51.578;7.268;2023-02-23T04:11:34;77.82;;;52.65;;
15271;SDS011;7737;51.578;7.268;2023-02-23T04:15:23;78.30;;;52.38;;
15271;SDS011;7737;51.578;7.268;2023-02-23T04:18:48;73.72;;;49.45;;
15271;SDS011;7737;51.578;7.268;2023-02-23T04:22:14;75.43;;;50.92;;
15271;SDS011;7737;51.578;7.268;2023-02-23T04:25:39;77.65;;;51.80;;
15271;SDS011;7737;51.578;7.268;2023-02-23T04:29:06;77.45;;;51.80;;
15271;SDS011;7737;51.578;7.268;2023-02-23T04:32:35;86.20;;;54.92;;
15271;SDS011;7737;51.578;7.268;2023-02-23T04:36:00;82.05;;;53.55;;
15271;SDS011;7737;51.578;7.268;2023-02-23T04:39:25;91.88;;;56.58;;
15271;SDS011;7737;51.578;7.268;2023-02-23T04:42:52;83.13;;;53.75;;
15271;SDS011;7737;51.578;7.268;2023-02-23T04:46:17;80.68;;;51.65;;
15271;SDS011;7737;51.578;7.268;2023-02-23T04:49:42;84.28;;;52.97;;
15271;SDS011;7737;51.578;7.268;2023-02-23T04:53:07;83.30;;;52.40;;
15271;SDS011;7737;51.578;7.268;2023-02-23T04:56:32;84.53;;;52.45;;
15271;SDS011;7737;51.578;7.268;2023-02-23T04:59:59;79.90;;;52.17;;
15271;SDS011;7737;51.578;7.268;2023-02-23T05:03:28;82.63;;;52.83;;
15271;SDS011;7737;51.578;7.268;2023-02-23T05:06:53;80.63;;;53.22;;
15271;SDS011;7737;51.578;7.268;2023-02-23T05:10:19;88.13;;;54.80;;
15271;SDS011;7737;51.578;7.268;2023-02-23T05:13:44;78.57;;;52.05;;
15271;SDS011;7737;51.578;7.268;2023-02-23T05:17:10;74.25;;;50.63;;
15271;SDS011;7737;51.578;7.268;2023-02-23T05:20:35;79.05;;;53.58;;
15271;SDS011;7737;51.578;7.268;2023-02-23T05:24:01;90.93;;;55.13;;
15271;SDS011;7737;51.578;7.268;2023-02-23T05:27:26;92.22;;;55.25;;
15271;SDS011;7737;51.578;7.268;2023-02-23T05:30:51;87.68;;;53.63;;
15271;SDS011;7737;51.578;7.268;2023-02-23T05:34:17;89.15;;;53.33;;
15271;SDS011;7737;51.578;7.268;2023-02-23T05:37:42;96.60;;;56.45;;
15271;SDS011;7737;51.578;7.268;2023-02-23T05:41:08;88.45;;;54.45;;
15271;SDS011;7737;51.578;7.268;2023-02-23T05:44:34;87.38;;;53.42;;
15271;SDS011;7737;51.578;7.268;2023-02-23T05:47:59;98.13;;;57.47;;
15271;SDS011;7737;51.578;7.268;2023-02-23T05:51:27;107.03;;;59.17;;
15271;SDS011;7737;51.578;7.268;2023-02-23T05:54:52;99.97;;;57.03;;
15271;SDS011;7737;51.578;7.268;2023-02-23T05:58:17;107.27;;;59.53;;
15271;SDS011;7737;51.578;7.268;2023-02-23T06:01:42;107.75;;;58.92;;
15271;SDS011;7737;51.578;7.268;2023-02-23T06:05:07;112.22;;;59.05;;
15271;SDS011;7737;51.578;7.268;2023-02-23T06:08:34;114.87;;;59.27;;
15271;SDS011;7737;51.578;7.268;2023-02-23T06:11:59;112.40;;;59.45;;
15271;SDS011;7737;51.578;7.268;2023-02-23T06:15:24;115.50;;;59.28;;
15271;SDS011;7737;51.578;7.268;2023-02-23T06:18:49;118.55;;;61.28;;
15271;SDS011;7737;51.578;7.268;2023-02-23T06:22:14;114.10;;;61.03;;
15271;SDS011;7737;51.578;7.268;2023-02-23T06:25:41;106.57;;;59.88;;
15271;SDS011;7737;51.578;7.268;2023-02-23T06:29:06;114.45;;;59.28;;
15271;SDS011;7737;51.578;7.268;2023-02-23T06:32:31;107.63;;;59.03;;
15271;SDS011;7737;51.578;7.268;2023-02-23T06:35:56;110.60;;;58.50;;
15271;SDS011;7737;51.578;7.268;2023-02-23T06:39:21;111.97;;;61.30;;
15271;SDS011;7737;51.578;7.268;2023-02-23T06:42:48;117.88;;;61.97;;
15271;SDS011;7737;51.578;7.268;2023-02-23T06:46:13;111.28;;;60.13;;
15271;SDS011;7737;51.578;7.268;2023-02-23T06:49:38;101.78;;;59.00;;
15271;SDS011;7737;51.578;7.268;2023-02-23T06:53:03;100.82;;;57.88;;
15271;SDS011;7737;51.578;7.268;2023-02-23T06:56:28;109.78;;;59.67;;
15271;SDS011;7737;51.578;7.268;2023-02-23T06:59:54;111.20;;;58.28;;
15271;SDS011;7737;51.578;7.268;2023-02-23T07:03:20;95.03;;;55.60;;
15271;SDS011;7737;51.578;7.268;2023-02-23T07:06:45;88.60;;;53.28;;
15271;SDS011;7737;51.578;7.268;2023-02-23T07:10:11;85.93;;;53.20;;
15271;SDS011;7737;51.578;7.268;2023-02-23T07:13:37;77.10;;;48.05;;
15271;SDS011;7737;51.578;7.268;2023-02-23T07:17:04;76.97;;;49.13;;
15271;SDS011;7737;51.578;7.268;2023-02-23T07:20:29;78.22;;;49.97;;
15271;SDS011;7737;51.578;7.268;2023-02-23T07:23:55;81.15;;;49.72;;
15271;SDS011;7737;51.578;7.268;2023-02-23T07:27:21;82.25;;;50.08;;
15271;SDS011;7737;51.578;7.268;2023-02-23T07:30:46;77.95;;;48.00;;
15271;SDS011;7737;51.578;7.268;2023-02-23T07:34:15;86.07;;;50.07;;
15271;SDS011;7737;51.578;7.268;2023-02-23T07:37:40;90.27;;;51.40;;
15271;SDS011;7737;51.578;7.268;2023-02-23T07:41:05;83.07;;;50.28;;
15271;SDS011;7737;51.578;7.268;2023-02-23T07:44:30;90.07;;;51.88;;
15271;SDS011;7737;51.578;7.268;2023-02-23T07:47:55;94.07;;;52.00;;
15271;SDS011;7737;51.578;7.268;2023-02-23T07:51:21;100.43;;;52.42;;
15271;SDS011;7737;51.578;7.268;2023-02-23T07:54:46;92.68;;;52.22;;
15271;SDS011;7737;51.578;7.268;2023-02-23T07:58:11;99.15;;;53.78;;
15271;SDS011;7737;51.578;7.268;2023-02-23T08:01:36;96.10;;;53.15;;
15271;SDS011;7737;51.578;7.268;2023-02-23T08:05:02;91.22;;;51.28;;
15271;SDS011;7737;51.578;7.268;2023-02-23T08:08:28;99.53;;;53.53;;
15271;SDS011;7737;51.578;7.268;2023-02-23T08:11:54;91.75;;;52.42;;
15271;SDS011;7737;51.578;7.268;2023-02-23T08:15:19;96.70;;;53.60;;
15271;SDS011;7737;51.578;7.268;2023-02-23T08:18:44;95.90;;;52.88;;
15271;SDS011;7737;51.578;7.268;2023-02-23T08:22:09;96.82;;;53.72;;
15271;SDS011;7737;51.578;7.268;2023-02-23T08:25:37;95.47;;;54.05;;
15271;SDS011;7737;51.578;7.268;2023-02-23T08:29:02;92.60;;;52.85;;
15271;SDS011;7737;51.578;7.268;2023-02-23T08:32:28;89.95;;;51.92;;
15271;SDS011;7737;51.578;7.268;2023-02-23T08:35:53;89.88;;;51.97;;
15271;SDS011;7737;51.578;7.268;2023-02-23T08:39:18;82.38;;;49.67;;
15271;SDS011;7737;51.578;7.268;2023-02-23T08:42:46;86.35;;;51.67;;
15271;SDS011;7737;51.578;7.268;2023-02-23T08:46:11;80.93;;;48.53;;
15271;SDS011;7737;51.578;7.268;2023-02-23T08:49:36;83.68;;;48.97;;
15271;SDS011;7737;51.578;7.268;2023-02-23T08:53:01;75.35;;;46.22;;
15271;SDS011;7737;51.578;7.268;2023-02-23T08:56:26;91.88;;;50.97;;
15271;SDS011;7737;51.578;7.268;2023-02-23T08:59:53;81.15;;;45.00;;
15271;SDS011;7737;51.578;7.268;2023-02-23T09:03:18;90.68;;;47.78;;
15271;SDS011;7737;51.578;7.268;2023-02-23T09:06:43;101.10;;;49.15;;
15271;SDS011;7737;51.578;7.268;2023-02-23T09:10:10;102.95;;;48.63;;
15271;SDS011;7737;51.578;7.268;2023-02-23T09:13:36;102.70;;;50.72;;
15271;SDS011;7737;51.578;7.268;2023-02-23T09:17:02;103.45;;;51.80;;
15271;SDS011;7737;51.578;7.268;2023-02-23T09:20:27;111.13;;;54.40;;
15271;SDS011;7737;51.578;7.268;2023-02-23T09:23:54;107.90;;;52.13;;
15271;SDS011;7737;51.578;7.268;2023-02-23T09:27:19;103.05;;;51.88;;
15271;SDS011;7737;51.578;7.268;2023-02-23T09:30:45;90.45;;;48.03;;
15271;SDS011;7737;51.578;7.268;2023-02-23T09:34:12;101.90;;;52.67;;
15271;SDS011;7737;51.578;7.268;2023-02-23T09:37:37;95.68;;;49.28;;
15271;SDS011;7737;51.578;7.268;2023-02-23T09:41:02;87.47;;;46.80;;
15271;SDS011;7737;51.578;7.268;2023-02-23T09:44:36;86.60;;;47.33;;
15271;SDS011;7737;51.578;7.268;2023-02-23T09:48:14;80.28;;;45.58;;
15271;SDS011;7737;51.578;7.268;2023-02-23T09:51:43;85.53;;;45.53;;
15271;SDS011;7737;51.578;7.268;2023-02-23T09:55:12;73.03;;;42.78;;
15271;SDS011;7737;51.578;7.268;2023-02-23T09:58:42;69.15;;;41.33;;
15271;SDS011;7737;51.578;7.268;2023-02-23T10:02:11;65.60;;;40.22;;
15271;SDS011;7737;51.578;7.268;2023-02-23T10:04:48;65.28;;;40.45;;
15271;SDS011;7737;51.578;7.268;2023-02-23T10:07:20;53.15;;;34.00;;
15271;SDS011;7737;51.578;7.268;2023-02-23T10:09:58;58.50;;;37.13;;
15271;SDS011;7737;51.578;7.268;2023-02-23T10:12:38;54.42;;;36.05;;
15271;SDS011;7737;51.578;7.268;2023-02-23T10:15:15;55.28;;;36.08;;
15271;SDS011;7737;51.578;7.268;2023-02-23T10:17:51;43.30;;;30.83;;
15271;SDS011;7737;51.578;7.268;2023-02-23T10:20:29;48.78;;;32.97;;
15271;SDS011;7737;51.578;7.268;2023-02-23T10:24:00;38.88;;;29.60;;
15271;SDS011;7737;51.578;7.268;2023-02-23T10:27:29;44.53;;;30.70;;
15271;SDS011;7737;51.578;7.268;2023-02-23T10:30:59;39.65;;;29.38;;
15271;SDS011;7737;51.578;7.268;2023-02-23T10:34:26;40.00;;;28.95;;
15271;SDS011;7737;51.578;7.268;2023-02-23T10:37:54;42.15;;;29.77;;
15271;SDS011;7737;51.578;7.268;2023-02-23T10:40:22;42.45;;;30.27;;
15271;SDS011;7737;51.578;7.268;2023-02-23T10:42:52;43.55;;;30.67;;
15271;SDS011;7737;51.578;7.268;2023-02-23T10:45:21;45.22;;;31.48;;
15271;SDS011;7737;51.578;7.268;2023-02-23T10:47:50;44.38;;;30.23;;
15271;SDS011;7737;51.578;7.268;2023-02-23T10:50:20;46.80;;;30.52;;
15271;SDS011;7737;51.578;7.268;2023-02-23T10:52:50;42.80;;;29.77;;
15271;SDS011;7737;51.578;7.268;2023-02-23T10:55:22;45.90;;;29.48;;
15271;SDS011;7737;51.578;7.268;2023-02-23T10:57:59;44.22;;;29.50;;
15271;SDS011;7737;51.578;7.268;2023-02-23T11:00:28;52.72;;;34.65;;
15271;SDS011;7737;51.578;7.268;2023-02-23T11:02:57;57.78;;;35.47;;
15271;SDS011;7737;51.578;7.268;2023-02-23T11:05:32;59.42;;;36.13;;
15271;SDS011;7737;51.578;7.268;2023-02-23T11:08:13;60.85;;;36.50;;
15271;SDS011;7737;51.578;7.268;2023-02-23T11:11:42;64.10;;;37.58;;
15271;SDS011;7737;51.578;7.268;2023-02-23T11:15:24;61.72;;;34.90;;
15271;SDS011;7737;51.578;7.268;2023-02-23T11:18:51;52.35;;;31.75;;
15271;SDS011;7737;51.578;7.268;2023-02-23T11:21:21;54.00;;;32.13;;
15271;SDS011;7737;51.578;7.268;2023-02-23T11:23:51;54.28;;;32.20;;
15271;SDS011;7737;51.578;7.268;2023-02-23T11:26:30;50.55;;;30.08;;
15271;SDS011;7737;51.578;7.268;2023-02-23T11:29:03;46.63;;;28.45;;
15271;SDS011;7737;51.578;7.268;2023-02-23T11:31:38;46.42;;;28.38;;
15271;SDS011;7737;51.578;7.268;2023-02-23T11:34:17;44.75;;;27.63;;
15271;SDS011;7737;51.578;7.268;2023-02-23T11:36:56;42.88;;;27.27;;
15271;SDS011;7737;51.578;7.268;2023-02-23T11:39:25;44.30;;;28.00;;
15271;SDS011;7737;51.578;7.268;2023-02-23T11:42:02;40.95;;;26.67;;
15271;SDS011;7737;51.578;7.268;2023-02-23T11:44:37;44.55;;;27.33;;
15271;SDS011;7737;51.578;7.268;2023-02-23T11:47:03;41.70;;;26.38;;
15271;SDS011;7737;51.578;7.268;2023-02-23T11:49:30;41.50;;;27.42;;
15271;SDS011;7737;51.578;7.268;2023-02-23T11:51:59;39.78;;;25.85;;
15271;SDS011;7737;51.578;7.268;2023-02-23T11:54:27;38.10;;;25.23;;
15271;SDS011;7737;51.578;7.268;2023-02-23T11:56:57;37.53;;;24.95;;
15271;SDS011;7737;51.578;7.268;2023-02-23T11:59:27;37.75;;;24.35;;
15271;SDS011;7737;51.578;7.268;2023-02-23T12:01:58;42.55;;;26.27;;
15271;SDS011;7737;51.578;7.268;2023-02-23T12:04:31;41.22;;;25.10;;
15271;SDS011;7737;51.578;7.268;2023-02-23T12:10:08;38.05;;;24.92;;
15271;SDS011;7737;51.578;7.268;2023-02-23T12:12:43;42.90;;;26.23;;
15271;SDS011;7737;51.578;7.268;2023-02-23T12:15:18;38.25;;;24.95;;
15271;SDS011;7737;51.578;7.268;2023-02-23T12:17:52;39.92;;;24.70;;
15271;SDS011;7737;51.578;7.268;2023-02-23T12:20:23;36.05;;;24.13;;
15271;SDS011;7737;51.578;7.268;2023-02-23T12:22:53;38.15;;;24.08;;
15271;SDS011;7737;51.578;7.268;2023-02-23T12:25:24;35.60;;;23.85;;
15271;SDS011;7737;51.578;7.268;2023-02-23T12:27:56;34.90;;;22.30;;
15271;SDS011;7737;51.578;7.268;2023-02-23T12:30:30;37.25;;;23.52;;
15271;SDS011;7737;51.578;7.268;2023-02-23T12:33:09;34.50;;;22.98;;
15271;SDS011;7737;51.578;7.268;2023-02-23T12:35:41;41.38;;;24.85;;
15271;SDS011;7737;51.578;7.268;2023-02-23T12:38:14;34.92;;;23.40;;
15271;SDS011;7737;51.578;7.268;2023-02-23T12:40:51;35.88;;;23.75;;
15271;SDS011;7737;51.578;7.268;2023-02-23T12:43:24;30.02;;;20.48;;
15271;SDS011;7737;51.578;7.268;2023-02-23T12:45:57;28.80;;;20.15;;
15271;SDS011;7737;51.578;7.268;2023-02-23T12:48:34;26.02;;;18.92;;
15271;SDS011;7737;51.578;7.268;2023-02-23T12:51:11;26.27;;;18.30;;
15271;SDS011;7737;51.578;7.268;2023-02-23T12:53:45;26.15;;;18.30;;
15271;SDS011;7737;51.578;7.268;2023-02-23T12:56:19;24.47;;;18.07;;
15271;SDS011;7737;51.578;7.268;2023-02-23T12:58:58;24.45;;;18.30;;
15271;SDS011;7737;51.578;7.268;2023-02-23T13:01:33;23.98;;;17.75;;
15271;SDS011;7737;51.578;7.268;2023-02-23T13:04:27;27.52;;;18.77;;
15271;SDS011;7737;51.578;7.268;2023-02-23T13:07:02;24.10;;;17.73;;
15271;SDS011;7737;51.578;7.268;2023-02-23T13:09:37;28.60;;;19.85;;
15271;SDS011;7737;51.578;7.268;2023-02-23T13:12:14;26.00;;;19.75;;
15271;SDS011;7737;51.578;7.268;2023-02-23T13:14:51;24.75;;;18.25;;
15271;SDS011;7737;51.578;7.268;2023-02-23T13:17:30;26.65;;;19.05;;
15271;SDS011;7737;51.578;7.268;2023-02-23T13:20:04;28.42;;;19.88;;
15271;SDS011;7737;51.578;7.268;2023-02-23T13:22:39;25.33;;;18.80;;
15271;SDS011;7737;51.578;7.268;2023-02-23T13:25:14;28.85;;;20.58;;
15271;SDS011;7737;51.578;7.268;2023-02-23T13:27:50;26.85;;;20.50;;
15271;SDS011;7737;51.578;7.268;2023-02-23T13:31:22;27.23;;;19.65;;
15271;SDS011;7737;51.578;7.268;2023-02-23T13:33:57;28.98;;;20.48;;
15271;SDS011;7737;51.578;7.268;2023-02-23T13:36:28;27.13;;;19.23;;
15271;SDS011;7737;51.578;7.268;2023-02-23T13:39:07;30.10;;;20.52;;
15271;SDS011;7737;51.578;7.268;2023-02-23T13:41:49;29.00;;;20.15;;
15271;SDS011;7737;51.578;7.268;2023-02-23T13:44:24;30.63;;;20.98;;
15271;SDS011;7737;51.578;7.268;2023-02-23T13:46:59;31.83;;;21.05;;
15271;SDS011;7737;51.578;7.268;2023-02-23T13:49:34;33.07;;;22.63;;
15271;SDS011;7737;51.578;7.268;2023-02-23T13:52:10;34.47;;;22.60;;
15271;SDS011;7737;51.578;7.268;2023-02-23T13:54:52;32.03;;;22.20;;
15271;SDS011;7737;51.578;7.268;2023-02-23T13:57:21;29.77;;;20.67;;
15271;SDS011;7737;51.578;7.268;2023-02-23T13:59:48;31.45;;;21.42;;
15271;SDS011;7737;51.578;7.268;2023-02-23T14:02:21;29.73;;;20.70;;
15271;SDS011;7737;51.578;7.268;2023-02-23T14:05:00;32.93;;;21.97;;
15271;SDS011;7737;51.578;7.268;2023-02-23T14:07:30;30.77;;;20.77;;
15271;SDS011;7737;51.578;7.268;2023-02-23T14:09:58;31.77;;;21.15;;
15271;SDS011;7737;51.578;7.268;2023-02-23T14:12:32;29.55;;;20.63;;
15271;SDS011;7737;51.578;7.268;2023-02-23T14:18:26;30.05;;;20.13;;
15271;SDS011;7737;51.578;7.268;2023-02-23T14:20:57;31.65;;;20.58;;
15271;SDS011;7737;51.578;7.268;2023-02-23T14:23:34;30.33;;;20.53;;
15271;SDS011;7737;51.578;7.268;2023-02-23T14:26:09;29.80;;;19.70;;
15271;SDS011;7737;51.578;7.268;2023-02-23T14:28:42;35.90;;;23.47;;
15271;SDS011;7737;51.578;7.268;2023-02-23T14:31:18;35.63;;;25.17;;
15271;SDS011;7737;51.578;7.268;2023-02-23T14:33:51;35.40;;;24.10;;
15271;SDS011;7737;51.578;7.268;2023-02-23T14:36:35;35.27;;;24.90;;
15271;SDS011;7737;51.578;7.268;2023-02-23T14:39:09;33.80;;;21.60;;
15271;SDS011;7737;51.578;7.268;2023-02-23T14:41:44;31.27;;;21.43;;
15271;SDS011;7737;51.578;7.268;2023-02-23T14:44:15;31.60;;;21.02;;
15271;SDS011;7737;51.578;7.268;2023-02-23T14:46:52;34.87;;;23.13;;
15271;SDS011;7737;51.578;7.268;2023-02-23T14:49:22;33.67;;;21.85;;
15271;SDS011;7737;51.578;7.268;2023-02-23T14:51:52;33.00;;;22.27;;
15271;SDS011;7737;51.578;7.268;2023-02-23T14:54:25;33.97;;;22.27;;
15271;SDS011;7737;51.578;7.268;2023-02-23T14:56:56;33.60;;;21.23;;
15271;SDS011;7737;51.578;7.268;2023-02-23T14:59:25;32.20;;;21.10;;
15271;SDS011;7737;51.578;7.268;2023-02-23T15:01:54;33.87;;;21.10;;
15271;SDS011;7737;51.578;7.268;2023-02-23T15:04:25;31.33;;;20.10;;
15271;SDS011;7737;51.578;7.268;2023-02-23T15:06:54;34.07;;;20.40;;
15271;SDS011;7737;51.578;7.268;2023-02-23T15:09:29;32.03;;;20.90;;
15271;SDS011;7737;51.578;7.268;2023-02-23T15:11:59;31.90;;;19.70;;
15271;SDS011;7737;51.578;7.268;2023-02-23T15:14:32;29.10;;;19.83;;
15271;SDS011;7737;51.578;7.268;2023-02-23T15:17:03;32.60;;;20.20;;
15271;SDS011;7737;51.578;7.268;2023-02-23T15:19:30;31.13;;;19.40;;
15271;SDS011;7737;51.578;7.268;2023-02-23T15:22:00;31.77;;;20.27;;
15271;SDS011;7737;51.578;7.268;2023-02-23T15:24:31;31.48;;;20.35;;
15271;SDS011;7737;51.578;7.268;2023-02-23T15:27:13;32.90;;;21.17;;
15271;SDS011;7737;51.578;7.268;2023-02-23T15:29:46;32.40;;;21.20;;
15271;SDS011;7737;51.578;7.268;2023-02-23T15:32:17;31.73;;;21.37;;
15271;SDS011;7737;51.578;7.268;2023-02-23T15:34:45;33.13;;;21.00;;
15271;SDS011;7737;51.578;7.268;2023-02-23T15:37:18;34.93;;;21.33;;
15271;SDS011;7737;51.578;7.268;2023-02-23T15:39:51;34.20;;;20.77;;
15271;SDS011;7737;51.578;7.268;2023-02-23T15:42:23;33.70;;;21.07;;
15271;SDS011;7737;51.578;7.268;2023-02-23T15:44:53;31.93;;;20.90;;
15271;SDS011;7737;51.578;7.268;2023-02-23T15:47:22;34.35;;;20.85;;
15271;SDS011;7737;51.578;7.268;2023-02-23T15:49:57;35.23;;;21.63;;
15271;SDS011;7737;51.578;7.268;2023-02-23T15:52:29;36.77;;;21.07;;
15271;SDS011;7737;51.578;7.268;2023-02-23T15:55:00;36.13;;;21.17;;
15271;SDS011;7737;51.578;7.268;2023-02-23T15:57:31;33.83;;;21.83;;
15271;SDS011;7737;51.578;7.268;2023-02-23T16:00:00;40.97;;;25.33;;
15271;SDS011;7737;51.578;7.268;2023-02-23T16:02:34;38.33;;;26.47;;
15271;SDS011;7737;51.578;7.268;2023-02-23T16:05:06;54.55;;;38.17;;
15271;SDS011;7737;51.578;7.268;2023-02-23T16:07:42;44.43;;;28.90;;
15271;SDS011;7737;51.578;7.268;2023-02-23T16:10:19;39.67;;;23.40;;
15271;SDS011;7737;51.578;7.268;2023-02-23T16:12:48;38.63;;;22.70;;
15271;SDS011;7737;51.578;7.268;2023-02-23T16:15:19;39.80;;;21.97;;
15271;SDS011;7737;51.578;7.268;2023-02-23T16:17:51;36.60;;;19.75;;
15271;SDS011;7737;51.578;7.268;2023-02-23T16:20:25;36.60;;;19.13;;
15271;SDS011;7737;51.578;7.268;2023-02-23T16:22:55;33.90;;;19.20;;
15271;SDS011;7737;51.578;7.268;2023-02-23T16:25:25;37.33;;;18.93;;
15271;SDS011;7737;51.578;7.268;2023-02-23T16:27:54;33.63;;;18.40;;
15271;SDS011;7737;51.578;7.268;2023-02-23T16:30:32;36.40;;;18.33;;
15271;SDS011;7737;51.578;7.268;2023-02-23T16:33:05;36.40;;;18.10;;
15271;SDS011;7737;51.578;7.268;2023-02-23T16:35:37;36.33;;;18.23;;
15271;SDS011;7737;51.578;7.268;2023-02-23T16:38:09;32.07;;;18.27;;
15271;SDS011;7737;51.578;7.268;2023-02-23T16:40:39;31.40;;;17.10;;
15271;SDS011;7737;51.578;7.268;2023-02-23T16:43:07;36.90;;;18.33;;
15271;SDS011;7737;51.578;7.268;2023-02-23T16:45:34;37.30;;;19.13;;
15271;SDS011;7737;51.578;7.268;2023-02-23T16:48:01;34.88;;;18.58;;
15271;SDS011;7737;51.578;7.268;2023-02-23T16:50:28;36.97;;;17.97;;
15271;SDS011;7737;51.578;7.268;2023-02-23T16:52:57;34.03;;;19.30;;
15271;SDS011;7737;51.578;7.268;2023-02-23T16:55:25;31.97;;;17.43;;
15271;SDS011;7737;51.578;7.268;2023-02-23T16:57:55;37.03;;;19.23;;
15271;SDS011;7737;51.578;7.268;2023-02-23T17:00:24;37.73;;;23.43;;
15271;SDS011;7737;51.578;7.268;2023-02-23T17:02:52;39.37;;;21.33;;
15271;SDS011;7737;51.578;7.268;2023-02-23T17:05:21;34.87;;;20.37;;
15271;SDS011;7737;51.578;7.268;2023-02-23T17:07:48;37.38;;;19.50;;
15271;SDS011;7737;51.578;7.268;2023-02-23T17:10:17;47.60;;;27.43;;
15271;SDS011;7737;51.578;7.268;2023-02-23T17:12:55;81.63;;;46.33;;
15271;SDS011;7737;51.578;7.268;2023-02-23T17:15:24;71.97;;;42.45;;
15271;SDS011;7737;51.578;7.268;2023-02-23T17:17:53;113.17;;;65.90;;
15271;SDS011;7737;51.578;7.268;2023-02-23T17:20:20;106.27;;;61.20;;
15271;SDS011;7737;51.578;7.268;2023-02-23T17:22:50;90.43;;;54.03;;
15271;SDS011;7737;51.578;7.268;2023-02-23T17:25:16;95.90;;;61.07;;
15271;SDS011;7737;51.578;7.268;2023-02-23T17:27:43;52.70;;;32.80;;
15271;SDS011;7737;51.578;7.268;2023-02-23T17:30:12;60.15;;;38.72;;
15271;SDS011;7737;51.578;7.268;2023-02-23T17:32:39;47.27;;;25.20;;
15271;SDS011;7737;51.578;7.268;2023-02-23T17:35:06;44.10;;;22.50;;
15271;SDS011;7737;51.578;7.268;2023-02-23T17:37:33;39.37;;;21.93;;
15271;SDS011;7737;51.578;7.268;2023-02-23T17:40:02;36.33;;;21.20;;
15271;SDS011;7737;51.578;7.268;2023-02-23T17:42:30;45.63;;;22.63;;
15271;SDS011;7737;51.578;7.268;2023-02-23T17:44:58;40.37;;;21.50;;
15271;SDS011;7737;51.578;7.268;2023-02-23T17:47:25;41.20;;;22.30;;
15271;SDS011;7737;51.578;7.268;2023-02-23T17:49:52;40.10;;;22.43;;
15271;SDS011;7737;51.578;7.268;2023-02-23T17:52:19;38.30;;;21.03;;
15271;SDS011;7737;51.578;7.268;2023-02-23T17:54:46;38.77;;;22.40;;
15271;SDS011;7737;51.578;7.268;2023-02-23T17:57:13;40.73;;;22.67;;
15271;SDS011;7737;51.578;7.268;2023-02-23T17:59:40;40.40;;;22.03;;
15271;SDS011;7737;51.578;7.268;2023-02-23T18:02:07;38.88;;;20.95;;
15271;SDS011;7737;51.578;7.268;2023-02-23T18:04:39;40.60;;;21.70;;
15271;SDS011;7737;51.578;7.268;2023-02-23T18:07:06;39.60;;;21.77;;
15271;SDS011;7737;51.578;7.268;2023-02-23T18:09:33;39.00;;;21.10;;